Fryeburg, ME

10:51 PM EST on December 17, 2014 (GMT -0500)
Eastern Slopes Regional | Change Station
CLOSE
Current Station
Airport
Location: Fryeburg,
Elevation: 453 ft
Nearby Weather Stations
Active Advisory: Winter Weather Advisory

Elev 453 ft 43.99 °N, 70.95 °W | Updated 57 minutes ago

Overcast
Overcast
34 °F
Feels Like 34 °F
N
0
Wind Variable Wind from North

Today
High -- | Low -- °F
--% Chance of Precip.
Yesterday
High -- | Low -- °F
Precip. -- in
7:12 AM 4:06 PM
Waning Crescent, 17% visible
Pressure 29.68 in
Visibility 10.0 miles
Clouds Scattered Clouds 3600 ft
Overcast 6500 ft
Dew Point 33 °F
Humidity 96%
Rainfall 0.71 in
Snow Depth Not available.
UV 0 out of 12
Pollen .10 out of 12
Air Quality Not available.
Flu Activity Not available.
METAR KIZG 180254Z AUTO 00000KT 10SM SCT036 OVC065 01/01 A2967 RMK AO2 SLP051 T00110006 58011

More Conditions Fewer Conditions

Pressure 29.68 in
Visibility 10.0 miles
Clouds Scattered Clouds 3600 ft
Overcast 6500 ft
Dew Point 33 °F
Humidity 96%
Rainfall 0.71 in
Snow Depth Not available.
UV 0 out of 12
Pollen .10 out of 12
Air Quality Not available.
Flu Activity Not available.
METAR KIZG 180254Z AUTO 00000KT 10SM SCT036 OVC065 01/01 A2967 RMK AO2 SLP051 T00110006 58011

More Conditions Fewer Conditions

10-Day Weather Forecast

Almanac

Astronomy

Dec. 17, 2014 Rise Set
Actual Time
Civil Twilight
Nautical Twilight
Astronomical Twilight
Moon
Length of Visible Light
Length of Day
Tomorrow will be .
, % of the Moon is Illuminated

Today's Extremes

State Highs State Lows

Community

WunderPhotos

Upload Photos

1,778,879 photos uploaded!

WunderBlogs® & News

Nearby

Air Quality

  Air Quality AQ Index Pollutant
Not available.

Snow Depth

Station Depth Elevation

Earthquake Activity

City Distance Mag. Time & Date
Minimum magnitude displayed is 2.5.

Coastal Water Temperatures

Place Temperature

Nearby Weather Stations